createdAt,value
2023-02-18T00:01:39.506Z,15.07
2023-02-18T00:04:07.691Z,13.65
2023-02-18T00:06:36.704Z,13.07
2023-02-18T00:11:35.754Z,12.68
2023-02-18T00:14:08.508Z,15.00
2023-02-18T00:16:36.076Z,13.90
2023-02-18T00:19:09.529Z,12.38
2023-02-18T00:21:37.562Z,12.15
2023-02-18T00:24:06.832Z,14.40
2023-02-18T00:26:35.261Z,14.32
2023-02-18T00:29:03.752Z,13.70
2023-02-18T00:31:37.357Z,14.27
2023-02-18T00:34:06.232Z,13.93
2023-02-18T00:36:35.386Z,14.35
2023-02-18T00:39:07.795Z,12.77
2023-02-18T00:41:36.174Z,12.32
2023-02-18T00:44:05.407Z,11.80
2023-02-18T00:46:34.822Z,11.43
2023-02-18T00:49:04.838Z,11.18
2023-02-18T00:51:33.423Z,12.32
2023-02-18T00:54:01.402Z,12.45
2023-02-18T00:56:29.153Z,11.07
2023-02-18T00:58:57.198Z,9.98
2023-02-18T01:01:25.083Z,10.07
2023-02-18T01:03:53.028Z,10.48
2023-02-18T01:06:22.335Z,11.18
2023-02-18T01:08:50.643Z,9.65
2023-02-18T01:11:18.528Z,10.45
2023-02-18T01:13:47.770Z,10.35
2023-02-18T01:16:15.726Z,10.15
2023-02-18T01:18:43.750Z,9.80
2023-02-18T01:21:11.869Z,8.73
2023-02-18T01:23:41.739Z,8.43
2023-02-18T01:26:10.893Z,7.95
2023-02-18T01:28:41.802Z,9.20
2023-02-18T01:31:12.780Z,8.65
2023-02-18T01:33:41.832Z,8.55
2023-02-18T01:36:11.213Z,9.02
2023-02-18T01:38:39.899Z,7.95
2023-02-18T01:41:08.198Z,7.65
2023-02-18T01:43:38.113Z,8.88
2023-02-18T01:49:03.476Z,7.75
2023-02-18T01:51:46.614Z,7.07
2023-02-18T01:54:39.911Z,7.50
2023-02-18T01:57:15.472Z,8.02
2023-02-18T02:00:08.622Z,7.63
2023-02-18T02:02:46.098Z,6.82
2023-02-18T02:05:15.095Z,7.03
2023-02-18T02:07:44.820Z,8.60
2023-02-18T02:10:15.735Z,7.35
2023-02-18T02:13:20.478Z,7.60
2023-02-18T02:16:11.106Z,6.47
2023-02-18T02:18:45.261Z,6.60
2023-02-18T02:21:31.833Z,6.75
2023-02-18T02:24:10.965Z,7.50
2023-02-18T02:27:08.611Z,6.28
2023-02-18T02:30:23.668Z,6.10
2023-02-18T02:33:40.390Z,6.30
2023-02-18T02:36:28.601Z,5.88
2023-02-18T02:39:38.002Z,5.85
2023-02-18T02:42:25.459Z,5.95
2023-02-18T02:45:07.042Z,5.38
2023-02-18T02:47:49.454Z,6.35
2023-02-18T02:51:08.008Z,5.55
2023-02-18T02:53:40.205Z,5.20
2023-02-18T02:56:24.952Z,4.80
2023-02-18T02:59:07.874Z,5.22
2023-02-18T03:02:11.055Z,5.35
2023-02-18T03:04:59.529Z,4.60
2023-02-18T03:07:57.893Z,5.32
2023-02-18T03:11:02.880Z,4.78
2023-02-18T03:14:12.834Z,5.80
2023-02-18T03:16:50.287Z,4.50
2023-02-18T03:19:38.274Z,4.63
2023-02-18T03:22:21.911Z,5.47
2023-02-18T03:24:57.002Z,5.60
2023-02-18T03:27:37.319Z,6.35
2023-02-18T03:30:28.868Z,5.13
2023-02-18T03:33:04.101Z,4.82
2023-02-18T03:35:32.774Z,5.30
2023-02-18T03:38:19.209Z,4.78
2023-02-18T03:40:47.753Z,4.93
2023-02-18T03:43:15.819Z,3.72
2023-02-18T03:45:43.759Z,3.75
2023-02-18T03:48:30.428Z,4.30
2023-02-18T03:50:58.422Z,4.45
2023-02-18T03:53:26.034Z,4.05
2023-02-18T03:55:53.838Z,3.35
2023-02-18T03:58:21.400Z,3.92
2023-02-18T04:00:49.277Z,3.85
2023-02-18T04:03:16.923Z,4.13
2023-02-18T04:05:44.853Z,3.90
2023-02-18T04:08:12.389Z,4.05
2023-02-18T04:10:40.217Z,4.15
2023-02-18T04:13:07.682Z,3.65
2023-02-18T04:15:35.723Z,3.83
2023-02-18T04:18:03.584Z,3.17
2023-02-18T04:20:31.991Z,4.25
2023-02-18T04:22:59.506Z,3.78
2023-02-18T04:25:27.617Z,3.55
2023-02-18T04:27:55.155Z,4.43
2023-02-18T04:30:23.139Z,3.42
2023-02-18T04:32:50.927Z,4.55
2023-02-18T04:35:19.108Z,3.85
2023-02-18T04:37:46.659Z,3.80
2023-02-18T04:40:15.156Z,4.00
2023-02-18T04:42:42.642Z,3.65
2023-02-18T04:45:10.597Z,4.57
2023-02-18T04:47:38.190Z,4.03
2023-02-18T04:50:07.072Z,4.80
2023-02-18T04:52:34.682Z,3.97
2023-02-18T04:55:02.522Z,5.25
2023-02-18T04:57:30.008Z,4.68
2023-02-18T04:59:57.833Z,4.43
2023-02-18T05:02:25.615Z,4.85
2023-02-18T05:04:53.488Z,5.32
2023-02-18T05:07:21.097Z,4.63
2023-02-18T05:09:49.021Z,6.05
2023-02-18T05:12:16.617Z,4.30
2023-02-18T05:14:44.544Z,6.85
2023-02-18T05:17:12.098Z,7.50
2023-02-18T05:19:39.926Z,7.43
2023-02-18T05:22:07.513Z,8.27
2023-02-18T05:24:35.313Z,8.60
2023-02-18T05:27:02.814Z,8.85
2023-02-18T05:29:30.633Z,9.00
2023-02-18T05:31:58.137Z,9.45
2023-02-18T05:34:26.266Z,9.30
2023-02-18T05:36:53.700Z,8.70
2023-02-18T05:39:21.516Z,8.68
2023-02-18T05:41:48.999Z,8.35
2023-02-18T05:44:32.568Z,8.77
2023-02-18T05:47:08.771Z,9.63
2023-02-18T05:49:38.609Z,8.75
2023-02-18T05:52:06.880Z,8.25
2023-02-18T05:54:36.076Z,9.80
2023-02-18T05:57:04.071Z,9.57
2023-02-18T05:59:32.399Z,12.85
2023-02-18T06:02:00.841Z,12.65
2023-02-18T06:04:29.088Z,9.65
2023-02-18T06:06:56.928Z,10.45
2023-02-18T06:09:24.995Z,8.77
2023-02-18T06:11:52.548Z,8.93
2023-02-18T06:14:21.099Z,9.02
2023-02-18T06:16:48.742Z,9.75
2023-02-18T06:19:16.692Z,8.30
2023-02-18T06:21:44.484Z,8.38
2023-02-18T06:24:12.365Z,9.63
2023-02-18T06:26:39.906Z,7.93
2023-02-18T06:29:07.860Z,8.15
2023-02-18T06:31:35.585Z,8.93
2023-02-18T06:34:04.049Z,8.68
2023-02-18T06:36:31.876Z,8.95
2023-02-18T06:39:00.025Z,8.55
2023-02-18T06:41:27.550Z,8.77
2023-02-18T06:43:55.479Z,9.15
2023-02-18T06:46:23.283Z,9.43
2023-02-18T06:48:51.547Z,9.73
2023-02-18T06:51:19.648Z,10.38
2023-02-18T06:53:47.596Z,10.50
2023-02-18T06:56:15.167Z,9.23
2023-02-18T06:58:43.229Z,9.60
2023-02-18T07:01:10.852Z,11.65
2023-02-18T07:03:39.004Z,11.48
2023-02-18T07:06:07.392Z,10.98
2023-02-18T07:08:37.677Z,9.55
2023-02-18T07:11:05.429Z,11.82
2023-02-18T07:13:33.293Z,11.27
2023-02-18T07:16:01.024Z,9.70
2023-02-18T07:18:28.900Z,12.32
2023-02-18T07:20:56.552Z,10.48
2023-02-18T07:23:24.447Z,10.48
2023-02-18T07:25:52.004Z,9.55
2023-02-18T07:28:19.883Z,9.10
2023-02-18T07:30:47.644Z,10.68
2023-02-18T07:33:15.648Z,10.30
2023-02-18T07:35:43.418Z,10.65
2023-02-18T07:38:11.283Z,7.38
2023-02-18T07:40:38.821Z,6.65
2023-02-18T07:43:06.630Z,7.28
2023-02-18T07:45:34.222Z,6.95
2023-02-18T07:48:02.008Z,6.63
2023-02-18T07:50:35.117Z,6.97
2023-02-18T07:53:07.253Z,5.60
2023-02-18T07:55:50.065Z,6.80
2023-02-18T07:58:27.781Z,5.65
2023-02-18T08:00:56.288Z,5.82
2023-02-18T08:03:28.394Z,7.03
2023-02-18T08:05:57.791Z,6.68
2023-02-18T08:08:29.362Z,6.47
2023-02-18T08:11:10.046Z,7.55
2023-02-18T08:13:41.912Z,7.93
2023-02-18T08:16:10.649Z,8.57
2023-02-18T08:18:38.753Z,7.95
2023-02-18T08:21:06.411Z,7.90
2023-02-18T08:23:34.556Z,7.93
2023-02-18T08:26:02.089Z,9.35
2023-02-18T08:28:30.347Z,9.25
2023-02-18T08:30:58.855Z,7.90
2023-02-18T08:33:26.850Z,7.78
2023-02-18T08:35:55.867Z,7.38
2023-02-18T08:41:02.230Z,7.60
2023-02-18T08:43:30.251Z,7.32
2023-02-18T08:45:59.217Z,7.22
2023-02-18T08:50:57.016Z,7.40
2023-02-18T08:53:25.054Z,7.32
2023-02-18T08:55:52.868Z,7.65
2023-02-18T08:58:20.848Z,6.82
2023-02-18T09:00:48.343Z,7.68
2023-02-18T09:03:17.101Z,7.60
2023-02-18T09:06:03.767Z,7.80
2023-02-18T09:08:33.763Z,8.17
2023-02-18T09:11:04.909Z,8.02
2023-02-18T09:13:34.280Z,8.60
2023-02-18T09:16:09.585Z,9.88
2023-02-18T09:18:37.901Z,7.90
2023-02-18T09:21:08.453Z,9.38
2023-02-18T09:23:36.728Z,8.68
2023-02-18T09:26:10.661Z,10.00
2023-02-18T09:28:38.628Z,9.95
2023-02-18T09:31:17.140Z,9.63
2023-02-18T09:33:55.485Z,10.27
2023-02-18T09:36:23.600Z,9.25
2023-02-18T09:38:51.612Z,10.07
2023-02-18T09:41:29.678Z,10.75
2023-02-18T09:44:27.527Z,10.50
2023-02-18T09:47:06.728Z,12.05
2023-02-18T09:49:40.330Z,11.63
2023-02-18T09:52:23.820Z,11.98
2023-02-18T09:54:52.409Z,11.32
2023-02-18T09:57:26.932Z,11.50
2023-02-18T10:00:05.242Z,11.88
2023-02-18T10:02:45.507Z,11.13
2023-02-18T10:05:15.948Z,12.57
2023-02-18T10:07:44.940Z,12.45
2023-02-18T10:10:43.458Z,12.23
2023-02-18T10:13:20.995Z,12.63
2023-02-18T10:15:50.416Z,12.05
2023-02-18T10:18:31.741Z,12.30
2023-02-18T10:21:21.111Z,11.75
2023-02-18T10:24:32.576Z,10.98
2023-02-18T10:27:03.906Z,11.60
2023-02-18T10:29:32.401Z,11.90
2023-02-18T10:32:35.314Z,12.32
2023-02-18T10:35:24.866Z,11.02
2023-02-18T10:37:58.040Z,9.90
2023-02-18T10:41:19.388Z,10.60
2023-02-18T10:44:19.051Z,8.70
2023-02-18T10:47:35.819Z,12.25
2023-02-18T10:50:23.680Z,11.23
2023-02-18T10:52:55.280Z,11.80
2023-02-18T10:55:38.146Z,11.32
2023-02-18T10:58:37.717Z,12.20
2023-02-18T11:01:13.472Z,12.52
2023-02-18T11:03:50.031Z,12.65
2023-02-18T11:06:26.613Z,11.52
2023-02-18T11:08:56.797Z,12.02
2023-02-18T11:11:40.122Z,11.95
2023-02-18T11:14:13.766Z,12.23
2023-02-18T11:16:45.947Z,12.05
2023-02-18T11:19:34.155Z,13.20
2023-02-18T11:22:23.585Z,11.68
2023-02-18T11:25:04.426Z,12.85
2023-02-18T11:27:46.335Z,11.88
2023-02-18T11:30:33.265Z,13.02
2023-02-18T11:33:15.196Z,13.60
2023-02-18T11:35:51.963Z,13.30
2023-02-18T11:38:46.360Z,12.88
2023-02-18T11:41:19.042Z,18.08
2023-02-18T11:43:55.974Z,13.73
2023-02-18T11:46:27.575Z,13.55
2023-02-18T11:48:56.083Z,13.27
2023-02-18T11:51:36.724Z,13.13
2023-02-18T11:54:24.777Z,14.02
2023-02-18T11:57:06.986Z,14.95
2023-02-18T11:59:38.547Z,12.18
2023-02-18T12:02:12.209Z,13.63
2023-02-18T12:04:58.949Z,13.77
2023-02-18T12:07:43.358Z,13.63
2023-02-18T12:10:27.854Z,12.35
2023-02-18T12:13:18.213Z,12.65
2023-02-18T12:16:04.428Z,12.95
2023-02-18T12:19:08.953Z,13.32
2023-02-18T12:22:26.805Z,13.32
2023-02-18T12:25:46.474Z,13.73
2023-02-18T12:28:50.648Z,13.98
2023-02-18T12:31:30.621Z,15.27
2023-02-18T12:34:03.834Z,14.43
2023-02-18T12:36:42.588Z,14.70
2023-02-18T12:39:31.635Z,14.85
2023-02-18T12:42:16.903Z,15.88
2023-02-18T12:45:09.079Z,15.00
2023-02-18T12:48:37.457Z,14.23
2023-02-18T12:51:37.068Z,15.43
2023-02-18T12:55:02.197Z,15.25
2023-02-18T12:57:49.243Z,16.25
2023-02-18T13:00:53.028Z,14.00
2023-02-18T13:03:53.062Z,15.63
2023-02-18T13:06:39.645Z,15.65
2023-02-18T13:09:46.757Z,14.02
2023-02-18T13:12:45.900Z,15.55
2023-02-18T13:15:44.263Z,15.23
2023-02-18T13:18:29.096Z,13.15
2023-02-18T13:21:07.809Z,14.85
2023-02-18T13:23:46.261Z,15.37
2023-02-18T13:26:17.853Z,14.85
2023-02-18T13:29:10.020Z,14.60
2023-02-18T13:32:13.544Z,14.52
2023-02-18T13:35:13.613Z,16.27
2023-02-18T13:38:20.282Z,15.77
2023-02-18T13:40:48.471Z,14.75
2023-02-18T13:43:31.338Z,14.20
2023-02-18T13:46:23.523Z,14.40
2023-02-18T13:49:03.355Z,13.43
2023-02-18T13:51:45.403Z,14.55
2023-02-18T13:54:13.274Z,12.52
2023-02-18T13:57:24.097Z,13.80
2023-02-18T13:59:58.234Z,14.05
2023-02-18T14:02:28.832Z,14.88
2023-02-18T14:05:22.552Z,15.35
2023-02-18T14:08:12.338Z,14.32
2023-02-18T14:10:40.484Z,14.20
2023-02-18T14:13:50.700Z,15.65
2023-02-18T14:16:20.174Z,12.88
2023-02-18T14:18:47.638Z,13.80
2023-02-18T14:21:15.325Z,14.32
2023-02-18T14:24:07.357Z,14.68
2023-02-18T14:26:45.711Z,12.70
2023-02-18T14:29:27.395Z,13.90
2023-02-18T14:32:12.144Z,14.57
2023-02-18T14:35:07.166Z,14.73
2023-02-18T14:37:49.855Z,13.75
2023-02-18T14:40:39.520Z,12.07
2023-02-18T14:43:54.863Z,11.90
2023-02-18T14:46:51.369Z,11.48
2023-02-18T14:49:41.343Z,10.40
2023-02-18T14:52:23.808Z,11.57
2023-02-18T14:54:52.254Z,14.07
2023-02-18T14:57:29.023Z,12.55
2023-02-18T15:00:00.751Z,11.30
2023-02-18T15:02:32.790Z,12.48
2023-02-18T15:05:20.689Z,11.85
2023-02-18T15:08:11.278Z,11.52
2023-02-18T15:10:45.171Z,13.15
2023-02-18T15:13:44.356Z,13.80
2023-02-18T15:16:34.343Z,13.98
2023-02-18T15:19:13.602Z,11.48
2023-02-18T15:21:49.657Z,13.57
2023-02-18T15:24:38.259Z,19.75
2023-02-18T15:27:29.526Z,18.98
2023-02-18T15:30:14.401Z,19.30
2023-02-18T15:32:53.207Z,19.77
2023-02-18T15:35:23.853Z,15.90
2023-02-18T15:37:58.480Z,14.13
2023-02-18T15:40:37.947Z,14.23
2023-02-18T15:43:07.736Z,20.27
2023-02-18T15:45:41.801Z,25.50
2023-02-18T15:48:31.963Z,19.85
2023-02-18T15:51:16.453Z,15.30
2023-02-18T15:53:50.676Z,17.85
2023-02-18T15:56:34.193Z,26.50
2023-02-18T15:59:30.636Z,32.13
2023-02-18T16:02:24.210Z,25.25
2023-02-18T16:04:59.070Z,24.83
2023-02-18T16:07:37.119Z,29.13
2023-02-18T16:10:37.179Z,31.17
2023-02-18T16:13:06.168Z,32.92
2023-02-18T16:15:41.161Z,31.95
2023-02-18T16:18:23.171Z,29.38
2023-02-18T16:21:02.311Z,28.70
2023-02-18T16:23:46.949Z,29.20
2023-02-18T16:26:23.322Z,34.35
2023-02-18T16:28:52.922Z,37.28
2023-02-18T16:31:21.959Z,39.90
2023-02-18T16:33:50.332Z,36.28
2023-02-18T16:36:19.302Z,32.93
2023-02-18T16:38:46.849Z,29.60
2023-02-18T16:41:15.492Z,30.33
2023-02-18T16:43:43.367Z,30.73
2023-02-18T16:46:21.843Z,32.70
2023-02-18T16:48:55.856Z,38.25
2023-02-18T16:51:33.446Z,37.95
2023-02-18T16:54:01.514Z,35.72
2023-02-18T16:56:33.795Z,34.33
2023-02-18T16:59:01.231Z,43.28
2023-02-18T17:01:31.424Z,41.40
2023-02-18T17:04:00.565Z,34.35
2023-02-18T17:08:57.220Z,20.27
2023-02-18T17:11:32.250Z,18.52
2023-02-18T17:14:00.667Z,18.63
2023-02-18T17:16:28.633Z,20.08
2023-02-18T17:18:56.245Z,23.05
2023-02-18T17:21:25.571Z,23.35
2023-02-18T17:23:53.139Z,21.88
2023-02-18T17:26:27.908Z,26.40
2023-02-18T17:28:57.770Z,27.48
2023-02-18T17:31:35.262Z,24.77
2023-02-18T17:34:08.382Z,24.13
2023-02-18T17:36:36.482Z,26.77
2023-02-18T17:39:12.599Z,25.42
2023-02-18T17:41:40.525Z,25.25
2023-02-18T17:44:20.368Z,43.05
2023-02-18T17:46:52.556Z,31.95
2023-02-18T17:49:22.382Z,31.38
2023-02-18T17:51:50.246Z,24.95
2023-02-18T17:54:20.371Z,27.52
2023-02-18T17:56:48.183Z,29.67
2023-02-18T17:59:15.989Z,28.55
2023-02-18T18:01:44.792Z,29.95
2023-02-18T18:04:18.767Z,27.25
2023-02-18T18:06:48.134Z,30.33
2023-02-18T18:09:15.656Z,27.92
2023-02-18T18:11:43.686Z,28.17
2023-02-18T18:14:14.982Z,28.55
2023-02-18T18:16:43.625Z,28.17
2023-02-18T18:19:11.222Z,26.98
2023-02-18T18:21:39.152Z,24.00
2023-02-18T18:24:07.090Z,26.13
2023-02-18T18:26:34.956Z,24.95
2023-02-18T18:29:02.468Z,21.20
2023-02-18T18:31:31.231Z,25.15
2023-02-18T18:34:01.102Z,27.30
2023-02-18T18:36:28.913Z,30.50
2023-02-18T18:38:56.346Z,24.73
2023-02-18T18:41:24.145Z,28.85
2023-02-18T18:43:51.656Z,25.27
2023-02-18T18:46:19.615Z,19.40
2023-02-18T18:48:47.121Z,18.42
2023-02-18T18:51:18.276Z,18.77
2023-02-18T18:53:45.856Z,21.13
2023-02-18T18:56:16.734Z,19.45
2023-02-18T18:58:44.340Z,17.65
2023-02-18T19:01:19.182Z,18.95
2023-02-18T19:03:47.652Z,17.15
2023-02-18T19:06:17.295Z,21.42
2023-02-18T19:08:46.819Z,20.42
2023-02-18T19:11:16.322Z,20.55
2023-02-18T19:13:46.004Z,18.77
2023-02-18T19:17:04.441Z,17.27
2023-02-18T19:19:34.513Z,18.08
2023-02-18T19:22:02.461Z,19.60
2023-02-18T19:24:31.584Z,18.27
2023-02-18T19:27:00.530Z,20.00
2023-02-18T19:29:28.480Z,18.08
2023-02-18T19:31:57.510Z,17.00
2023-02-18T19:34:27.800Z,19.13
2023-02-18T19:36:58.785Z,17.08
2023-02-18T19:39:30.439Z,17.08
2023-02-18T19:42:01.754Z,17.05
2023-02-18T19:44:35.038Z,16.30
2023-02-18T19:47:03.062Z,15.07
2023-02-18T19:49:30.674Z,16.77
2023-02-18T19:52:04.160Z,14.50
2023-02-18T19:54:34.323Z,24.10
2023-02-18T19:57:05.216Z,14.90
2023-02-18T19:59:32.960Z,15.73
2023-02-18T20:02:00.864Z,16.15
2023-02-18T20:04:28.711Z,15.70
2023-02-18T20:06:56.919Z,14.93
2023-02-18T20:09:24.558Z,17.40
2023-02-18T20:11:52.949Z,15.10
2023-02-18T20:14:21.453Z,15.38
2023-02-18T20:16:49.963Z,15.73
2023-02-18T20:19:17.894Z,17.13
2023-02-18T20:21:45.850Z,15.63
2023-02-18T20:24:13.819Z,17.08
2023-02-18T20:26:41.923Z,17.88
2023-02-18T20:29:09.538Z,16.20
2023-02-18T20:31:37.908Z,15.10
2023-02-18T20:34:05.666Z,17.67
2023-02-18T20:36:33.673Z,17.50
2023-02-18T20:39:15.372Z,17.10
2023-02-18T20:41:45.955Z,16.80
2023-02-18T20:44:16.006Z,17.13
2023-02-18T20:46:45.254Z,14.73
2023-02-18T20:49:16.454Z,16.58
2023-02-18T20:51:44.826Z,14.77
2023-02-18T20:54:16.132Z,13.18
2023-02-18T20:56:44.333Z,13.63
2023-02-18T20:59:14.293Z,14.55
2023-02-18T21:01:43.916Z,14.50
2023-02-18T21:04:13.641Z,16.08
2023-02-18T21:06:41.814Z,13.98
2023-02-18T21:09:10.058Z,16.45
2023-02-18T21:11:37.926Z,18.10
2023-02-18T21:14:05.628Z,17.58
2023-02-18T21:16:38.661Z,16.33
2023-02-18T21:19:09.418Z,17.52
2023-02-18T21:21:37.292Z,16.00
2023-02-18T21:24:05.312Z,17.15
2023-02-18T21:26:33.477Z,17.35
2023-02-18T21:29:05.692Z,20.02
2023-02-18T21:31:37.783Z,24.05
2023-02-18T21:34:07.969Z,23.65
2023-02-18T21:36:35.741Z,24.92
2023-02-18T21:39:07.433Z,24.08
2023-02-18T21:41:38.532Z,25.58
2023-02-18T21:44:07.882Z,23.20
2023-02-18T21:46:36.794Z,20.13
2023-02-18T21:49:06.365Z,16.30
2023-02-18T21:52:05.217Z,18.05
2023-02-18T21:54:44.580Z,17.92
2023-02-18T21:57:19.001Z,19.25
2023-02-18T21:59:46.628Z,18.20
2023-02-18T22:02:22.817Z,17.52
2023-02-18T22:04:54.041Z,17.58
2023-02-18T22:07:25.499Z,20.10
2023-02-18T22:09:54.092Z,21.23
2023-02-18T22:12:23.681Z,19.95
2023-02-18T22:14:51.199Z,22.35
2023-02-18T22:17:21.615Z,21.13
2023-02-18T22:19:49.375Z,19.83
2023-02-18T22:22:17.796Z,21.75
2023-02-18T22:24:45.229Z,19.83
2023-02-18T22:27:13.107Z,18.33
2023-02-18T22:29:40.606Z,20.52
2023-02-18T22:32:08.437Z,29.42
2023-02-18T22:34:36.151Z,34.13
2023-02-18T22:37:04.078Z,37.45
2023-02-18T22:39:32.022Z,42.13
2023-02-18T22:41:59.741Z,41.67
2023-02-18T22:44:27.645Z,45.75
2023-02-18T22:46:56.976Z,36.03
2023-02-18T22:49:25.550Z,30.75
2023-02-18T22:51:54.861Z,26.10
2023-02-18T22:54:22.629Z,23.33
2023-02-18T22:56:53.058Z,23.52
2023-02-18T22:59:20.622Z,22.05
2023-02-18T23:01:49.712Z,23.08
2023-02-18T23:04:19.462Z,23.08
2023-02-18T23:06:48.682Z,24.38
2023-02-18T23:09:22.990Z,22.02
2023-02-18T23:11:53.477Z,23.45
2023-02-18T23:14:21.923Z,24.90
2023-02-18T23:17:18.701Z,22.20
2023-02-18T23:19:54.096Z,21.58
2023-02-18T23:22:36.044Z,22.48
2023-02-18T23:25:04.337Z,21.35
2023-02-18T23:27:32.161Z,22.03
2023-02-18T23:29:59.783Z,21.92
2023-02-18T23:32:28.971Z,20.52
2023-02-18T23:34:56.434Z,21.38
2023-02-18T23:37:44.382Z,21.92
2023-02-18T23:40:13.945Z,20.27
2023-02-18T23:42:42.275Z,21.17
2023-02-18T23:45:09.935Z,21.23
2023-02-18T23:47:37.777Z,21.20
2023-02-18T23:50:05.580Z,21.40
2023-02-18T23:52:33.395Z,21.90
2023-02-18T23:55:01.204Z,21.40
2023-02-18T23:57:32.855Z,22.65
